sensor_id;sensor_type;location;lat;lon;timestamp;temperature;humidity
80412;SHT30;69749;42.684;23.360;2024-01-15T00:01:43;2.12;55.32
80412;SHT30;69749;42.684;23.360;2024-01-15T00:04:09;2.15;54.83
80412;SHT30;69749;42.684;23.360;2024-01-15T00:06:35;2.16;54.60
80412;SHT30;69749;42.684;23.360;2024-01-15T00:09:00;2.16;54.54
80412;SHT30;69749;42.684;23.360;2024-01-15T00:11:26;2.22;53.99
80412;SHT30;69749;42.684;23.360;2024-01-15T00:13:52;2.24;53.52
80412;SHT30;69749;42.684;23.360;2024-01-15T00:16:17;2.03;53.84
80412;SHT30;69749;42.684;23.360;2024-01-15T00:18:43;1.50;55.90
80412;SHT30;69749;42.684;23.360;2024-01-15T00:21:09;1.14;57.80
80412;SHT30;69749;42.684;23.360;2024-01-15T00:23:35;1.14;58.11
80412;SHT30;69749;42.684;23.360;2024-01-15T00:26:00;1.41;57.60
80412;SHT30;69749;42.684;23.360;2024-01-15T00:28:26;1.59;56.87
80412;SHT30;69749;42.684;23.360;2024-01-15T00:30:51;1.74;56.39
80412;SHT30;69749;42.684;23.360;2024-01-15T00:33:17;1.87;55.78
80412;SHT30;69749;42.684;23.360;2024-01-15T00:35:42;1.95;55.48
80412;SHT30;69749;42.684;23.360;2024-01-15T00:38:08;1.45;56.91
80412;SHT30;69749;42.684;23.360;2024-01-15T00:40:33;1.64;56.86
80412;SHT30;69749;42.684;23.360;2024-01-15T00:42:59;1.45;57.28
80412;SHT30;69749;42.684;23.360;2024-01-15T00:45:24;1.59;56.91
80412;SHT30;69749;42.684;23.360;2024-01-15T00:47:50;1.54;57.31
80412;SHT30;69749;42.684;23.360;2024-01-15T00:50:15;1.44;57.37
80412;SHT30;69749;42.684;23.360;2024-01-15T00:52:42;1.55;57.09
80412;SHT30;69749;42.684;23.360;2024-01-15T00:55:08;1.68;56.97
80412;SHT30;69749;42.684;23.360;2024-01-15T00:57:33;1.68;56.78
80412;SHT30;69749;42.684;23.360;2024-01-15T00:59:59;1.58;57.11
80412;SHT30;69749;42.684;23.360;2024-01-15T01:02:24;1.58;57.29
80412;SHT30;69749;42.684;23.360;2024-01-15T01:04:50;1.59;57.05
80412;SHT30;69749;42.684;23.360;2024-01-15T01:07:15;1.64;57.06
80412;SHT30;69749;42.684;23.360;2024-01-15T01:09:41;1.69;57.11
80412;SHT30;69749;42.684;23.360;2024-01-15T01:12:06;1.34;58.00
80412;SHT30;69749;42.684;23.360;2024-01-15T01:14:32;1.57;57.36
80412;SHT30;69749;42.684;23.360;2024-01-15T01:16:57;1.66;57.26
80412;SHT30;69749;42.684;23.360;2024-01-15T01:19:23;1.79;56.67
80412;SHT30;69749;42.684;23.360;2024-01-15T01:21:50;1.50;57.58
80412;SHT30;69749;42.684;23.360;2024-01-15T01:24:16;1.33;58.24
80412;SHT30;69749;42.684;23.360;2024-01-15T01:26:42;1.54;57.52
80412;SHT30;69749;42.684;23.360;2024-01-15T01:29:07;1.51;57.47
80412;SHT30;69749;42.684;23.360;2024-01-15T01:31:33;1.37;58.06
80412;SHT30;69749;42.684;23.360;2024-01-15T01:33:58;1.48;57.47
80412;SHT30;69749;42.684;23.360;2024-01-15T01:36:24;1.65;56.59
80412;SHT30;69749;42.684;23.360;2024-01-15T01:38:49;1.74;55.61
80412;SHT30;69749;42.684;23.360;2024-01-15T01:41:15;1.78;55.29
80412;SHT30;69749;42.684;23.360;2024-01-15T01:43:40;1.85;54.93
80412;SHT30;69749;42.684;23.360;2024-01-15T01:46:06;1.92;54.38
80412;SHT30;69749;42.684;23.360;2024-01-15T01:48:32;1.92;54.31
80412;SHT30;69749;42.684;23.360;2024-01-15T01:51:00;1.95;54.02
80412;SHT30;69749;42.684;23.360;2024-01-15T01:53:28;1.82;54.09
80412;SHT30;69749;42.684;23.360;2024-01-15T01:55:56;1.69;54.26
80412;SHT30;69749;42.684;23.360;2024-01-15T01:58:22;1.28;55.09
80412;SHT30;69749;42.684;23.360;2024-01-15T02:00:48;1.07;56.03
80412;SHT30;69749;42.684;23.360;2024-01-15T02:03:15;0.87;56.68
80412;SHT30;69749;42.684;23.360;2024-01-15T02:05:42;0.97;56.32
80412;SHT30;69749;42.684;23.360;2024-01-15T02:08:08;1.08;56.22
80412;SHT30;69749;42.684;23.360;2024-01-15T02:10:34;1.19;55.87
80412;SHT30;69749;42.684;23.360;2024-01-15T02:12:59;1.16;55.93
80412;SHT30;69749;42.684;23.360;2024-01-15T02:15:25;1.14;56.02
80412;SHT30;69749;42.684;23.360;2024-01-15T02:18:01;1.24;55.93
80412;SHT30;69749;42.684;23.360;2024-01-15T02:20:28;1.31;55.49
80412;SHT30;69749;42.684;23.360;2024-01-15T02:22:53;1.06;56.25
80412;SHT30;69749;42.684;23.360;2024-01-15T02:25:19;0.96;56.73
80412;SHT30;69749;42.684;23.360;2024-01-15T02:27:46;1.14;56.60
80412;SHT30;69749;42.684;23.360;2024-01-15T02:30:12;1.35;56.06
80412;SHT30;69749;42.684;23.360;2024-01-15T02:32:38;1.33;55.63
80412;SHT30;69749;42.684;23.360;2024-01-15T02:35:04;1.40;55.71
80412;SHT30;69749;42.684;23.360;2024-01-15T02:37:29;1.43;55.36
80412;SHT30;69749;42.684;23.360;2024-01-15T02:39:55;1.10;56.24
80412;SHT30;69749;42.684;23.360;2024-01-15T02:42:20;1.20;55.88
80412;SHT30;69749;42.684;23.360;2024-01-15T02:44:46;1.20;55.83
80412;SHT30;69749;42.684;23.360;2024-01-15T02:47:11;1.28;55.77
80412;SHT30;69749;42.684;23.360;2024-01-15T02:49:37;1.38;55.32
80412;SHT30;69749;42.684;23.360;2024-01-15T02:52:03;1.47;54.88
80412;SHT30;69749;42.684;23.360;2024-01-15T02:54:28;1.54;54.28
80412;SHT30;69749;42.684;23.360;2024-01-15T02:56:54;1.55;53.77
80412;SHT30;69749;42.684;23.360;2024-01-15T02:59:19;1.54;53.59
80412;SHT30;69749;42.684;23.360;2024-01-15T03:01:45;1.57;53.30
80412;SHT30;69749;42.684;23.360;2024-01-15T03:04:10;1.10;54.49
80412;SHT30;69749;42.684;23.360;2024-01-15T03:06:36;1.26;54.44
80412;SHT30;69749;42.684;23.360;2024-01-15T03:09:01;1.40;54.00
80412;SHT30;69749;42.684;23.360;2024-01-15T03:11:28;1.48;53.97
80412;SHT30;69749;42.684;23.360;2024-01-15T03:13:54;1.13;54.75
80412;SHT30;69749;42.684;23.360;2024-01-15T03:16:20;1.24;54.90
80412;SHT30;69749;42.684;23.360;2024-01-15T03:18:45;1.37;54.59
80412;SHT30;69749;42.684;23.360;2024-01-15T03:21:11;1.51;53.91
80412;SHT30;69749;42.684;23.360;2024-01-15T03:23:36;1.59;53.20
80412;SHT30;69749;42.684;23.360;2024-01-15T03:26:02;1.65;53.01
80412;SHT30;69749;42.684;23.360;2024-01-15T03:28:28;1.69;52.33
80412;SHT30;69749;42.684;23.360;2024-01-15T03:30:55;1.54;51.88
80412;SHT30;69749;42.684;23.360;2024-01-15T03:33:21;1.37;52.44
80412;SHT30;69749;42.684;23.360;2024-01-15T03:35:46;1.23;52.36
80412;SHT30;69749;42.684;23.360;2024-01-15T03:38:12;1.34;52.43
80412;SHT30;69749;42.684;23.360;2024-01-15T03:40:37;1.28;52.67
80412;SHT30;69749;42.684;23.360;2024-01-15T03:43:03;1.24;53.07
80412;SHT30;69749;42.684;23.360;2024-01-15T03:45:29;1.22;53.08
80412;SHT30;69749;42.684;23.360;2024-01-15T03:47:54;1.06;53.55
80412;SHT30;69749;42.684;23.360;2024-01-15T03:50:20;1.10;54.17
80412;SHT30;69749;42.684;23.360;2024-01-15T03:52:45;0.86;54.78
80412;SHT30;69749;42.684;23.360;2024-01-15T03:55:11;1.12;54.35
80412;SHT30;69749;42.684;23.360;2024-01-15T03:57:36;1.30;53.66
80412;SHT30;69749;42.684;23.360;2024-01-15T04:00:02;1.43;53.40
80412;SHT30;69749;42.684;23.360;2024-01-15T04:02:28;1.58;53.30
80412;SHT30;69749;42.684;23.360;2024-01-15T04:04:54;1.37;53.93
80412;SHT30;69749;42.684;23.360;2024-01-15T04:07:20;1.38;54.03
80412;SHT30;69749;42.684;23.360;2024-01-15T04:09:45;1.17;54.92
80412;SHT30;69749;42.684;23.360;2024-01-15T04:12:11;1.33;54.44
80412;SHT30;69749;42.684;23.360;2024-01-15T04:14:36;1.27;54.17
80412;SHT30;69749;42.684;23.360;2024-01-15T04:17:02;1.00;55.36
80412;SHT30;69749;42.684;23.360;2024-01-15T04:19:27;1.04;55.69
80412;SHT30;69749;42.684;23.360;2024-01-15T04:21:53;1.28;54.90
80412;SHT30;69749;42.684;23.360;2024-01-15T04:24:18;0.93;55.88
80412;SHT30;69749;42.684;23.360;2024-01-15T04:26:45;0.75;56.92
80412;SHT30;69749;42.684;23.360;2024-01-15T04:29:10;1.01;56.10
80412;SHT30;69749;42.684;23.360;2024-01-15T04:31:36;1.23;55.55
80412;SHT30;69749;42.684;23.360;2024-01-15T04:34:01;1.37;55.21
80412;SHT30;69749;42.684;23.360;2024-01-15T04:36:27;1.44;54.90
80412;SHT30;69749;42.684;23.360;2024-01-15T04:38:52;1.47;54.46
80412;SHT30;69749;42.684;23.360;2024-01-15T04:41:18;1.30;54.14
80412;SHT30;69749;42.684;23.360;2024-01-15T04:43:43;1.35;54.49
80412;SHT30;69749;42.684;23.360;2024-01-15T04:46:09;1.43;54.13
80412;SHT30;69749;42.684;23.360;2024-01-15T04:48:35;1.31;54.04
80412;SHT30;69749;42.684;23.360;2024-01-15T04:51:00;1.04;54.58
80412;SHT30;69749;42.684;23.360;2024-01-15T04:53:26;1.06;54.84
80412;SHT30;69749;42.684;23.360;2024-01-15T04:55:51;0.87;55.29
80412;SHT30;69749;42.684;23.360;2024-01-15T04:58:17;1.06;54.89
80412;SHT30;69749;42.684;23.360;2024-01-15T05:00:42;1.19;54.63
80412;SHT30;69749;42.684;23.360;2024-01-15T05:03:08;1.10;54.62
80412;SHT30;69749;42.684;23.360;2024-01-15T05:05:33;1.08;55.03
80412;SHT30;69749;42.684;23.360;2024-01-15T05:07:59;0.92;55.80
80412;SHT30;69749;42.684;23.360;2024-01-15T05:10:24;0.96;56.08
80412;SHT30;69749;42.684;23.360;2024-01-15T05:12:50;1.12;55.73
80412;SHT30;69749;42.684;23.360;2024-01-15T05:15:16;1.24;55.66
80412;SHT30;69749;42.684;23.360;2024-01-15T05:17:41;1.31;55.47
80412;SHT30;69749;42.684;23.360;2024-01-15T05:20:07;1.44;55.21
80412;SHT30;69749;42.684;23.360;2024-01-15T05:22:32;1.51;54.77
80412;SHT30;69749;42.684;23.360;2024-01-15T05:24:58;1.48;54.17
80412;SHT30;69749;42.684;23.360;2024-01-15T05:27:23;1.55;53.31
80412;SHT30;69749;42.684;23.360;2024-01-15T05:29:49;1.57;52.45
80412;SHT30;69749;42.684;23.360;2024-01-15T05:32:14;1.37;52.84
80412;SHT30;69749;42.684;23.360;2024-01-15T05:34:40;1.40;53.12
80412;SHT30;69749;42.684;23.360;2024-01-15T05:37:05;1.45;53.25
80412;SHT30;69749;42.684;23.360;2024-01-15T05:39:31;1.10;54.26
80412;SHT30;69749;42.684;23.360;2024-01-15T05:41:58;1.03;55.38
80412;SHT30;69749;42.684;23.360;2024-01-15T05:44:23;1.01;55.27
80412;SHT30;69749;42.684;23.360;2024-01-15T05:46:49;1.06;55.62
80412;SHT30;69749;42.684;23.360;2024-01-15T05:49:14;0.89;56.07
80412;SHT30;69749;42.684;23.360;2024-01-15T05:51:40;0.96;56.39
80412;SHT30;69749;42.684;23.360;2024-01-15T05:54:05;1.00;56.35
80412;SHT30;69749;42.684;23.360;2024-01-15T05:56:31;1.10;56.02
80412;SHT30;69749;42.684;23.360;2024-01-15T05:58:56;0.90;56.27
80412;SHT30;69749;42.684;23.360;2024-01-15T06:01:22;1.04;56.00
80412;SHT30;69749;42.684;23.360;2024-01-15T06:03:48;0.69;56.92
80412;SHT30;69749;42.684;23.360;2024-01-15T06:06:13;0.49;57.65
80412;SHT30;69749;42.684;23.360;2024-01-15T06:08:38;0.66;57.62
80412;SHT30;69749;42.684;23.360;2024-01-15T06:11:04;0.87;56.91
80412;SHT30;69749;42.684;23.360;2024-01-15T06:13:30;0.66;57.66
80412;SHT30;69749;42.684;23.360;2024-01-15T06:15:55;0.95;56.72
80412;SHT30;69749;42.684;23.360;2024-01-15T06:18:21;1.12;56.64
80412;SHT30;69749;42.684;23.360;2024-01-15T06:20:46;0.89;56.23
80412;SHT30;69749;42.684;23.360;2024-01-15T06:23:12;1.08;56.19
80412;SHT30;69749;42.684;23.360;2024-01-15T06:25:37;1.30;55.95
80412;SHT30;69749;42.684;23.360;2024-01-15T06:28:03;1.41;55.39
80412;SHT30;69749;42.684;23.360;2024-01-15T06:30:30;1.37;55.88
80412;SHT30;69749;42.684;23.360;2024-01-15T06:32:55;1.64;55.00
80412;SHT30;69749;42.684;23.360;2024-01-15T06:35:21;1.65;55.07
80412;SHT30;69749;42.684;23.360;2024-01-15T06:37:46;1.64;55.38
80412;SHT30;69749;42.684;23.360;2024-01-15T06:40:14;1.47;55.38
80412;SHT30;69749;42.684;23.360;2024-01-15T06:42:41;1.40;56.20
80412;SHT30;69749;42.684;23.360;2024-01-15T06:45:07;1.76;55.52
80412;SHT30;69749;42.684;23.360;2024-01-15T06:47:32;2.01;54.71
80412;SHT30;69749;42.684;23.360;2024-01-15T06:49:58;2.12;54.37
80412;SHT30;69749;42.684;23.360;2024-01-15T06:52:24;2.29;53.94
80412;SHT30;69749;42.684;23.360;2024-01-15T06:54:49;2.27;53.89
80412;SHT30;69749;42.684;23.360;2024-01-15T06:57:15;2.44;53.58
80412;SHT30;69749;42.684;23.360;2024-01-15T06:59:40;2.29;53.78
80412;SHT30;69749;42.684;23.360;2024-01-15T07:02:06;2.50;53.65
80412;SHT30;69749;42.684;23.360;2024-01-15T07:04:31;2.50;53.66
80412;SHT30;69749;42.684;23.360;2024-01-15T07:07:00;2.36;54.00
80412;SHT30;69749;42.684;23.360;2024-01-15T07:09:25;2.19;54.85
80412;SHT30;69749;42.684;23.360;2024-01-15T07:11:51;2.37;54.41
80412;SHT30;69749;42.684;23.360;2024-01-15T07:14:19;2.29;54.83
80412;SHT30;69749;42.684;23.360;2024-01-15T07:16:45;2.48;54.49
80412;SHT30;69749;42.684;23.360;2024-01-15T07:19:11;2.54;53.85
80412;SHT30;69749;42.684;23.360;2024-01-15T07:21:37;1.95;56.11
80412;SHT30;69749;42.684;23.360;2024-01-15T07:24:05;2.12;55.20
80412;SHT30;69749;42.684;23.360;2024-01-15T07:26:30;2.17;55.46
80412;SHT30;69749;42.684;23.360;2024-01-15T07:28:56;2.36;55.18
80412;SHT30;69749;42.684;23.360;2024-01-15T07:31:22;2.48;53.97
80412;SHT30;69749;42.684;23.360;2024-01-15T07:33:47;2.60;53.42
80412;SHT30;69749;42.684;23.360;2024-01-15T07:36:15;2.73;53.38
80412;SHT30;69749;42.684;23.360;2024-01-15T07:38:41;2.73;53.40
80412;SHT30;69749;42.684;23.360;2024-01-15T07:41:06;2.89;53.39
80412;SHT30;69749;42.684;23.360;2024-01-15T07:43:33;2.92;53.11
80412;SHT30;69749;42.684;23.360;2024-01-15T07:45:58;2.81;53.20
80412;SHT30;69749;42.684;23.360;2024-01-15T07:48:24;2.91;53.28
80412;SHT30;69749;42.684;23.360;2024-01-15T07:50:50;3.05;52.68
80412;SHT30;69749;42.684;23.360;2024-01-15T07:53:15;3.09;52.19
80412;SHT30;69749;42.684;23.360;2024-01-15T07:55:41;2.80;52.42
80412;SHT30;69749;42.684;23.360;2024-01-15T07:58:07;2.27;54.23
80412;SHT30;69749;42.684;23.360;2024-01-15T08:00:32;2.43;54.31
80412;SHT30;69749;42.684;23.360;2024-01-15T08:02:57;2.73;53.83
80412;SHT30;69749;42.684;23.360;2024-01-15T08:05:23;2.81;53.32
80412;SHT30;69749;42.684;23.360;2024-01-15T08:07:48;2.82;53.66
80412;SHT30;69749;42.684;23.360;2024-01-15T08:10:14;2.94;53.35
80412;SHT30;69749;42.684;23.360;2024-01-15T08:12:39;2.51;54.07
80412;SHT30;69749;42.684;23.360;2024-01-15T08:15:05;2.67;53.54
80412;SHT30;69749;42.684;23.360;2024-01-15T08:17:31;2.95;53.14
80412;SHT30;69749;42.684;23.360;2024-01-15T08:19:57;3.34;52.40
80412;SHT30;69749;42.684;23.360;2024-01-15T08:22:23;3.46;51.92
80412;SHT30;69749;42.684;23.360;2024-01-15T08:24:49;3.71;51.31
80412;SHT30;69749;42.684;23.360;2024-01-15T08:27:14;3.74;50.93
80412;SHT30;69749;42.684;23.360;2024-01-15T08:29:40;4.54;49.96
80412;SHT30;69749;42.684;23.360;2024-01-15T08:32:05;5.67;47.27
80412;SHT30;69749;42.684;23.360;2024-01-15T08:34:31;6.83;44.14
80412;SHT30;69749;42.684;23.360;2024-01-15T08:36:56;7.81;41.30
80412;SHT30;69749;42.684;23.360;2024-01-15T08:39:22;8.57;40.00
80412;SHT30;69749;42.684;23.360;2024-01-15T08:41:47;9.74;37.59
80412;SHT30;69749;42.684;23.360;2024-01-15T08:44:13;10.63;35.59
80412;SHT30;69749;42.684;23.360;2024-01-15T08:46:38;11.54;33.83
80412;SHT30;69749;42.684;23.360;2024-01-15T08:49:04;12.33;32.61
80412;SHT30;69749;42.684;23.360;2024-01-15T08:51:29;12.40;32.26
80412;SHT30;69749;42.684;23.360;2024-01-15T08:53:56;12.71;31.81
80412;SHT30;69749;42.684;23.360;2024-01-15T08:56:22;12.47;31.90
80412;SHT30;69749;42.684;23.360;2024-01-15T08:58:47;12.41;31.96
80412;SHT30;69749;42.684;23.360;2024-01-15T09:01:13;12.54;31.98
80412;SHT30;69749;42.684;23.360;2024-01-15T09:03:40;12.93;30.02
80412;SHT30;69749;42.684;23.360;2024-01-15T09:06:07;12.78;29.93
80412;SHT30;69749;42.684;23.360;2024-01-15T09:08:33;12.23;30.85
80412;SHT30;69749;42.684;23.360;2024-01-15T09:10:58;11.90;30.55
80412;SHT30;69749;42.684;23.360;2024-01-15T09:13:24;11.92;31.10
80412;SHT30;69749;42.684;23.360;2024-01-15T09:15:49;11.46;31.79
80412;SHT30;69749;42.684;23.360;2024-01-15T09:18:15;11.59;32.04
80412;SHT30;69749;42.684;23.360;2024-01-15T09:20:40;11.35;32.25
80412;SHT30;69749;42.684;23.360;2024-01-15T09:23:05;10.62;33.20
80412;SHT30;69749;42.684;23.360;2024-01-15T09:25:31;10.50;34.15
80412;SHT30;69749;42.684;23.360;2024-01-15T09:27:57;10.35;34.13
80412;SHT30;69749;42.684;23.360;2024-01-15T09:30:23;9.77;35.29
80412;SHT30;69749;42.684;23.360;2024-01-15T09:32:48;9.48;36.03
80412;SHT30;69749;42.684;23.360;2024-01-15T09:35:14;9.05;36.73
80412;SHT30;69749;42.684;23.360;2024-01-15T09:37:40;9.32;35.92
80412;SHT30;69749;42.684;23.360;2024-01-15T09:40:06;9.33;36.11
80412;SHT30;69749;42.684;23.360;2024-01-15T09:42:34;9.20;35.98
80412;SHT30;69749;42.684;23.360;2024-01-15T09:45:01;9.16;36.58
80412;SHT30;69749;42.684;23.360;2024-01-15T09:47:28;8.09;38.49
80412;SHT30;69749;42.684;23.360;2024-01-15T09:49:54;8.23;38.32
80412;SHT30;69749;42.684;23.360;2024-01-15T09:52:21;8.36;38.03
80412;SHT30;69749;42.684;23.360;2024-01-15T09:54:48;8.20;38.28
80412;SHT30;69749;42.684;23.360;2024-01-15T09:57:14;8.27;38.72
80412;SHT30;69749;42.684;23.360;2024-01-15T09:59:41;8.12;39.10
80412;SHT30;69749;42.684;23.360;2024-01-15T10:02:08;8.05;39.52
80412;SHT30;69749;42.684;23.360;2024-01-15T10:04:34;8.06;39.26
80412;SHT30;69749;42.684;23.360;2024-01-15T10:07:00;8.05;39.39
80412;SHT30;69749;42.684;23.360;2024-01-15T10:09:26;8.09;39.77
80412;SHT30;69749;42.684;23.360;2024-01-15T10:11:52;8.09;39.94
80412;SHT30;69749;42.684;23.360;2024-01-15T10:14:17;7.86;40.27
80412;SHT30;69749;42.684;23.360;2024-01-15T10:16:43;7.72;40.73
80412;SHT30;69749;42.684;23.360;2024-01-15T10:19:09;7.27;41.83
80412;SHT30;69749;42.684;23.360;2024-01-15T10:21:35;7.40;41.63
80412;SHT30;69749;42.684;23.360;2024-01-15T10:24:01;7.01;42.50
80412;SHT30;69749;42.684;23.360;2024-01-15T10:26:31;6.89;42.90
80412;SHT30;69749;42.684;23.360;2024-01-15T10:29:00;7.03;42.61
80412;SHT30;69749;42.684;23.360;2024-01-15T10:31:26;6.95;42.86
80412;SHT30;69749;42.684;23.360;2024-01-15T10:33:52;7.04;42.75
80412;SHT30;69749;42.684;23.360;2024-01-15T10:36:18;7.16;42.48
80412;SHT30;69749;42.684;23.360;2024-01-15T10:38:44;6.80;43.26
80412;SHT30;69749;42.684;23.360;2024-01-15T10:41:10;7.00;43.16
80412;SHT30;69749;42.684;23.360;2024-01-15T10:43:36;7.07;43.56
80412;SHT30;69749;42.684;23.360;2024-01-15T10:46:02;7.21;43.41
80412;SHT30;69749;42.684;23.360;2024-01-15T10:48:28;7.09;44.05
80412;SHT30;69749;42.684;23.360;2024-01-15T10:50:59;6.95;44.30
80412;SHT30;69749;42.684;23.360;2024-01-15T10:53:24;7.11;43.91
80412;SHT30;69749;42.684;23.360;2024-01-15T10:55:50;7.13;43.99
80412;SHT30;69749;42.684;23.360;2024-01-15T10:58:17;7.26;43.67
80412;SHT30;69749;42.684;23.360;2024-01-15T11:00:44;6.56;44.96
80412;SHT30;69749;42.684;23.360;2024-01-15T11:03:10;6.85;44.06
80412;SHT30;69749;42.684;23.360;2024-01-15T11:05:41;7.16;43.26
80412;SHT30;69749;42.684;23.360;2024-01-15T11:08:08;7.06;43.04
80412;SHT30;69749;42.684;23.360;2024-01-15T11:10:48;7.06;43.37
80412;SHT30;69749;42.684;23.360;2024-01-15T11:13:40;7.10;42.97
80412;SHT30;69749;42.684;23.360;2024-01-15T11:16:08;7.32;43.02
80412;SHT30;69749;42.684;23.360;2024-01-15T11:21:22;7.37;42.61
80412;SHT30;69749;42.684;23.360;2024-01-15T11:23:50;7.30;42.72
80412;SHT30;69749;42.684;23.360;2024-01-15T11:28:57;7.23;42.71
80412;SHT30;69749;42.684;23.360;2024-01-15T11:34:15;7.47;42.62
80412;SHT30;69749;42.684;23.360;2024-01-15T11:41:54;7.11;43.66
80412;SHT30;69749;42.684;23.360;2024-01-15T11:44:21;7.23;43.32
80412;SHT30;69749;42.684;23.360;2024-01-15T11:47:04;7.32;42.66
80412;SHT30;69749;42.684;23.360;2024-01-15T11:52:24;7.47;43.00
80412;SHT30;69749;42.684;23.360;2024-01-15T11:55:43;7.41;43.04
80412;SHT30;69749;42.684;23.360;2024-01-15T11:58:01;7.55;43.05
80412;SHT30;69749;42.684;23.360;2024-01-15T12:00:28;7.67;42.88
80412;SHT30;69749;42.684;23.360;2024-01-15T12:02:54;7.72;41.88
80412;SHT30;69749;42.684;23.360;2024-01-15T12:05:22;7.65;42.37
80412;SHT30;69749;42.684;23.360;2024-01-15T12:07:49;7.74;42.10
80412;SHT30;69749;42.684;23.360;2024-01-15T12:10:17;7.55;42.42
80412;SHT30;69749;42.684;23.360;2024-01-15T12:12:58;7.44;43.38
80412;SHT30;69749;42.684;23.360;2024-01-15T12:15:27;7.64;43.00
80412;SHT30;69749;42.684;23.360;2024-01-15T12:17:54;7.55;43.13
80412;SHT30;69749;42.684;23.360;2024-01-15T12:20:21;7.48;43.33
80412;SHT30;69749;42.684;23.360;2024-01-15T12:22:46;7.57;43.18
80412;SHT30;69749;42.684;23.360;2024-01-15T12:25:12;7.65;43.13
80412;SHT30;69749;42.684;23.360;2024-01-15T12:27:37;7.38;44.03
80412;SHT30;69749;42.684;23.360;2024-01-15T12:30:03;7.46;43.43
80412;SHT30;69749;42.684;23.360;2024-01-15T12:32:29;7.51;43.53
80412;SHT30;69749;42.684;23.360;2024-01-15T12:34:55;7.68;43.41
80412;SHT30;69749;42.684;23.360;2024-01-15T12:37:21;7.77;43.25
80412;SHT30;69749;42.684;23.360;2024-01-15T12:39:47;7.78;43.09
80412;SHT30;69749;42.684;23.360;2024-01-15T12:42:16;7.88;43.09
80412;SHT30;69749;42.684;23.360;2024-01-15T12:44:43;7.48;43.39
80412;SHT30;69749;42.684;23.360;2024-01-15T12:47:09;7.48;43.95
80412;SHT30;69749;42.684;23.360;2024-01-15T12:49:38;7.64;43.56
80412;SHT30;69749;42.684;23.360;2024-01-15T12:52:08;7.77;43.02
80412;SHT30;69749;42.684;23.360;2024-01-15T12:54:34;7.72;42.90
80412;SHT30;69749;42.684;23.360;2024-01-15T12:57:00;7.31;44.79
80412;SHT30;69749;42.684;23.360;2024-01-15T12:59:25;7.48;44.48
80412;SHT30;69749;42.684;23.360;2024-01-15T13:01:51;7.54;44.09
80412;SHT30;69749;42.684;23.360;2024-01-15T13:04:23;7.52;44.34
80412;SHT30;69749;42.684;23.360;2024-01-15T13:06:50;7.58;44.42
80412;SHT30;69749;42.684;23.360;2024-01-15T13:09:16;7.72;43.84
80412;SHT30;69749;42.684;23.360;2024-01-15T13:11:43;7.32;44.85
80412;SHT30;69749;42.684;23.360;2024-01-15T13:14:09;7.32;45.22
80412;SHT30;69749;42.684;23.360;2024-01-15T13:16:34;7.54;44.55
80412;SHT30;69749;42.684;23.360;2024-01-15T13:19:00;7.68;44.33
80412;SHT30;69749;42.684;23.360;2024-01-15T13:21:25;7.82;44.02
80412;SHT30;69749;42.684;23.360;2024-01-15T13:23:51;7.85;43.70
80412;SHT30;69749;42.684;23.360;2024-01-15T13:26:16;7.90;43.89
80412;SHT30;69749;42.684;23.360;2024-01-15T13:28:44;8.02;43.62
80412;SHT30;69749;42.684;23.360;2024-01-15T13:31:10;8.05;43.56
80412;SHT30;69749;42.684;23.360;2024-01-15T13:33:35;7.88;44.06
80412;SHT30;69749;42.684;23.360;2024-01-15T13:36:01;7.79;43.96
80412;SHT30;69749;42.684;23.360;2024-01-15T13:38:27;7.65;44.63
80412;SHT30;69749;42.684;23.360;2024-01-15T13:40:53;7.58;45.01
80412;SHT30;69749;42.684;23.360;2024-01-15T13:43:20;7.71;44.77
80412;SHT30;69749;42.684;23.360;2024-01-15T13:45:46;7.77;44.50
80412;SHT30;69749;42.684;23.360;2024-01-15T13:48:11;7.78;44.54
80412;SHT30;69749;42.684;23.360;2024-01-15T13:50:37;7.88;44.32
80412;SHT30;69749;42.684;23.360;2024-01-15T13:53:03;7.93;44.39
80412;SHT30;69749;42.684;23.360;2024-01-15T13:55:29;7.51;45.21
80412;SHT30;69749;42.684;23.360;2024-01-15T13:57:55;7.59;45.23
80412;SHT30;69749;42.684;23.360;2024-01-15T14:00:21;7.75;44.99
80412;SHT30;69749;42.684;23.360;2024-01-15T14:02:47;7.77;44.80
80412;SHT30;69749;42.684;23.360;2024-01-15T14:05:13;7.58;45.24
80412;SHT30;69749;42.684;23.360;2024-01-15T14:07:39;7.72;45.32
80412;SHT30;69749;42.684;23.360;2024-01-15T14:10:05;7.82;45.28
80412;SHT30;69749;42.684;23.360;2024-01-15T14:12:33;7.85;44.60
80412;SHT30;69749;42.684;23.360;2024-01-15T14:15:04;7.86;44.78
80412;SHT30;69749;42.684;23.360;2024-01-15T14:17:30;7.92;45.10
80412;SHT30;69749;42.684;23.360;2024-01-15T14:19:56;7.96;45.28
80412;SHT30;69749;42.684;23.360;2024-01-15T14:22:22;7.92;45.71
80412;SHT30;69749;42.684;23.360;2024-01-15T14:24:48;7.83;46.02
80412;SHT30;69749;42.684;23.360;2024-01-15T14:27:14;7.92;45.64
80412;SHT30;69749;42.684;23.360;2024-01-15T14:29:39;8.02;45.34
80412;SHT30;69749;42.684;23.360;2024-01-15T14:32:05;8.02;45.36
80412;SHT30;69749;42.684;23.360;2024-01-15T14:34:30;8.03;45.33
80412;SHT30;69749;42.684;23.360;2024-01-15T14:36:56;7.82;45.82
80412;SHT30;69749;42.684;23.360;2024-01-15T14:39:22;7.28;47.03
80412;SHT30;69749;42.684;23.360;2024-01-15T14:41:48;7.14;47.12
80412;SHT30;69749;42.684;23.360;2024-01-15T14:44:14;7.37;46.83
80412;SHT30;69749;42.684;23.360;2024-01-15T14:46:39;7.11;48.10
80412;SHT30;69749;42.684;23.360;2024-01-15T14:49:05;7.01;48.70
80412;SHT30;69749;42.684;23.360;2024-01-15T14:51:30;7.26;48.04
80412;SHT30;69749;42.684;23.360;2024-01-15T14:53:56;7.20;48.22
80412;SHT30;69749;42.684;23.360;2024-01-15T14:56:22;7.34;48.17
80412;SHT30;69749;42.684;23.360;2024-01-15T14:58:47;7.51;47.63
80412;SHT30;69749;42.684;23.360;2024-01-15T15:01:13;7.59;47.31
80412;SHT30;69749;42.684;23.360;2024-01-15T15:03:39;7.59;47.22
80412;SHT30;69749;42.684;23.360;2024-01-15T15:06:05;6.97;48.74
80412;SHT30;69749;42.684;23.360;2024-01-15T15:08:33;6.80;50.05
80412;SHT30;69749;42.684;23.360;2024-01-15T15:10:59;7.07;48.82
80412;SHT30;69749;42.684;23.360;2024-01-15T15:13:25;7.20;48.12
80412;SHT30;69749;42.684;23.360;2024-01-15T15:15:51;7.19;48.43
80412;SHT30;69749;42.684;23.360;2024-01-15T15:18:17;6.99;48.65
80412;SHT30;69749;42.684;23.360;2024-01-15T15:20:43;7.00;48.36
80412;SHT30;69749;42.684;23.360;2024-01-15T15:23:08;7.16;48.05
80412;SHT30;69749;42.684;23.360;2024-01-15T15:25:36;6.72;49.54
80412;SHT30;69749;42.684;23.360;2024-01-15T15:28:05;6.61;49.86
80412;SHT30;69749;42.684;23.360;2024-01-15T15:30:31;6.86;49.03
80412;SHT30;69749;42.684;23.360;2024-01-15T15:32:56;7.03;48.42
80412;SHT30;69749;42.684;23.360;2024-01-15T15:35:23;7.06;48.27
80412;SHT30;69749;42.684;23.360;2024-01-15T15:37:49;7.00;48.38
80412;SHT30;69749;42.684;23.360;2024-01-15T15:40:14;7.16;48.37